createdAt,value
2022-10-14T00:01:05.466Z,20.40
2022-10-14T00:03:33.317Z,20.40
2022-10-14T00:06:01.066Z,20.43
2022-10-14T00:08:28.746Z,20.40
2022-10-14T00:10:56.402Z,20.70
2022-10-14T00:13:24.227Z,20.97
2022-10-14T00:15:53.228Z,21.90
2022-10-14T00:18:20.895Z,21.23
2022-10-14T00:20:55.762Z,20.27
2022-10-14T00:23:23.582Z,20.17
2022-10-14T00:25:51.400Z,20.27
2022-10-14T00:28:19.302Z,20.57
2022-10-14T00:30:56.420Z,19.37
2022-10-14T00:33:25.210Z,20.50
2022-10-14T00:35:57.091Z,21.03
2022-10-14T00:38:24.815Z,20.27
2022-10-14T00:40:52.656Z,20.37
2022-10-14T00:43:21.209Z,20.07
2022-10-14T00:45:48.907Z,19.90
2022-10-14T00:48:18.981Z,20.23
2022-10-14T00:50:49.035Z,20.87
2022-10-14T00:53:17.498Z,20.30
2022-10-14T00:55:45.229Z,20.87
2022-10-14T00:58:13.007Z,19.90
2022-10-14T01:00:41.121Z,19.43
2022-10-14T01:03:10.491Z,19.30
2022-10-14T01:05:53.475Z,20.67
2022-10-14T01:08:28.533Z,20.60
2022-10-14T01:11:03.150Z,20.07
2022-10-14T01:13:35.133Z,19.57
2022-10-14T01:16:15.746Z,20.10
2022-10-14T01:18:57.630Z,19.50
2022-10-14T01:21:29.869Z,20.30
2022-10-14T01:24:32.393Z,21.23
2022-10-14T01:27:12.628Z,20.70
2022-10-14T01:30:08.927Z,21.43
2022-10-14T01:32:44.344Z,19.53
2022-10-14T01:35:18.982Z,21.57
2022-10-14T01:37:53.171Z,20.80
2022-10-14T01:40:27.448Z,22.27
2022-10-14T01:42:56.606Z,22.03
2022-10-14T01:45:29.907Z,21.73
2022-10-14T01:47:59.766Z,22.17
2022-10-14T01:50:30.175Z,23.07
2022-10-14T01:53:02.616Z,23.83
2022-10-14T01:55:36.578Z,23.77
2022-10-14T01:58:06.664Z,22.50
2022-10-14T02:00:35.733Z,21.97
2022-10-14T02:03:03.515Z,22.37
2022-10-14T02:05:39.201Z,22.37
2022-10-14T02:08:12.947Z,23.33
2022-10-14T02:11:01.907Z,23.17
2022-10-14T02:13:50.318Z,24.13
2022-10-14T02:16:27.802Z,22.33
2022-10-14T02:19:02.440Z,23.13
2022-10-14T02:21:34.910Z,23.93
2022-10-14T02:24:07.483Z,24.00
2022-10-14T02:26:37.065Z,24.70
2022-10-14T02:29:06.476Z,24.00
2022-10-14T02:31:36.875Z,25.73
2022-10-14T02:34:08.247Z,24.20
2022-10-14T02:36:36.952Z,24.60
2022-10-14T02:39:07.523Z,23.80
2022-10-14T02:41:38.582Z,23.40
2022-10-14T02:44:06.887Z,25.03
2022-10-14T02:46:36.911Z,25.73
2022-10-14T02:49:04.589Z,25.70
2022-10-14T02:51:32.225Z,26.03
2022-10-14T02:54:01.796Z,25.53
2022-10-14T02:56:29.500Z,25.23
2022-10-14T02:58:57.176Z,25.77
2022-10-14T03:01:24.920Z,25.37
2022-10-14T03:03:54.008Z,25.63
2022-10-14T03:06:21.657Z,26.57
2022-10-14T03:08:49.333Z,25.77
2022-10-14T03:11:16.985Z,26.10
2022-10-14T03:13:44.636Z,25.07
2022-10-14T03:16:12.380Z,26.33
2022-10-14T03:18:40.063Z,27.17
2022-10-14T03:21:09.101Z,26.33
2022-10-14T03:23:36.769Z,27.37
2022-10-14T03:26:04.491Z,26.90
2022-10-14T03:28:32.267Z,27.00
2022-10-14T03:30:59.942Z,28.17
2022-10-14T03:33:29.823Z,27.77
2022-10-14T03:36:00.797Z,27.93
2022-10-14T03:38:29.818Z,26.97
2022-10-14T03:40:57.794Z,29.00
2022-10-14T03:43:25.560Z,29.80
2022-10-14T03:45:53.223Z,28.03
2022-10-14T03:48:21.287Z,29.30
2022-10-14T03:50:49.216Z,28.30
2022-10-14T03:53:16.920Z,29.13
2022-10-14T03:55:46.041Z,27.80
2022-10-14T03:58:13.770Z,28.20
2022-10-14T04:00:41.508Z,28.17
2022-10-14T04:03:09.250Z,28.17
2022-10-14T04:05:37.079Z,28.53
2022-10-14T04:08:04.876Z,27.77
2022-10-14T04:10:32.547Z,29.07
2022-10-14T04:13:01.762Z,26.73
2022-10-14T04:15:29.504Z,28.03
2022-10-14T04:17:57.677Z,27.83
2022-10-14T04:20:25.392Z,26.33
2022-10-14T04:22:53.038Z,28.17
2022-10-14T04:25:20.822Z,27.17
2022-10-14T04:27:48.463Z,28.93
2022-10-14T04:30:17.900Z,29.20
2022-10-14T04:32:46.319Z,28.83
2022-10-14T04:35:14.058Z,28.60
2022-10-14T04:37:41.959Z,29.57
2022-10-14T04:40:10.255Z,32.00
2022-10-14T04:42:37.968Z,30.70
2022-10-14T04:45:06.448Z,30.47
2022-10-14T04:47:35.459Z,30.57
2022-10-14T04:50:03.501Z,30.43
2022-10-14T04:52:31.657Z,29.60
2022-10-14T04:54:59.310Z,30.60
2022-10-14T04:57:26.945Z,30.17
2022-10-14T04:59:54.592Z,30.10
2022-10-14T05:02:22.478Z,30.70
2022-10-14T05:04:51.789Z,28.83
2022-10-14T05:07:19.458Z,30.27
2022-10-14T05:09:49.748Z,30.10
2022-10-14T05:12:19.287Z,28.73
2022-10-14T05:14:47.274Z,28.60
2022-10-14T05:17:14.956Z,29.53
2022-10-14T05:19:42.633Z,27.53
2022-10-14T05:22:11.662Z,28.17
2022-10-14T05:24:39.336Z,28.80
2022-10-14T05:27:07.356Z,28.27
2022-10-14T05:29:34.991Z,27.53
2022-10-14T05:32:02.656Z,29.30
2022-10-14T05:34:30.349Z,29.27
2022-10-14T05:36:58.019Z,30.43
2022-10-14T05:39:27.373Z,29.43
2022-10-14T05:41:55.100Z,29.23
2022-10-14T05:44:22.742Z,29.40
2022-10-14T05:46:50.440Z,29.17
2022-10-14T05:49:18.081Z,28.33
2022-10-14T05:51:45.711Z,28.93
2022-10-14T05:54:13.607Z,28.27
2022-10-14T05:56:42.757Z,28.70
2022-10-14T05:59:10.559Z,28.10
2022-10-14T06:01:38.526Z,28.83
2022-10-14T06:04:06.384Z,29.13
2022-10-14T06:06:34.024Z,28.40
2022-10-14T06:09:01.847Z,28.10
2022-10-14T06:11:29.566Z,28.67
2022-10-14T06:13:58.629Z,29.80
2022-10-14T06:16:26.311Z,28.47
2022-10-14T06:18:54.703Z,27.47
2022-10-14T06:21:22.798Z,28.37
2022-10-14T06:23:50.665Z,28.67
2022-10-14T06:26:18.378Z,29.40
2022-10-14T06:28:46.304Z,28.03
2022-10-14T06:31:15.465Z,29.00
2022-10-14T06:33:44.104Z,27.20
2022-10-14T06:36:12.220Z,28.37
2022-10-14T06:38:40.296Z,28.57
2022-10-14T06:41:08.093Z,27.83
2022-10-14T06:43:39.958Z,28.80
2022-10-14T06:46:07.996Z,27.37
2022-10-14T06:48:38.404Z,27.03
2022-10-14T06:51:06.229Z,25.70
2022-10-14T06:53:35.048Z,25.80
2022-10-14T06:56:05.223Z,26.97
2022-10-14T06:58:33.993Z,26.73
2022-10-14T07:01:05.306Z,25.00
2022-10-14T07:03:36.323Z,25.23
2022-10-14T07:06:06.330Z,25.13
2022-10-14T07:08:34.163Z,23.67
2022-10-14T07:11:01.897Z,24.00
2022-10-14T07:13:29.916Z,25.83
2022-10-14T07:15:57.595Z,24.47
2022-10-14T07:18:25.441Z,23.90
2022-10-14T07:20:53.733Z,24.00
2022-10-14T07:26:14.903Z,23.27
2022-10-14T07:28:42.701Z,24.40
2022-10-14T07:31:13.094Z,23.33
2022-10-14T07:33:41.689Z,23.13
2022-10-14T07:36:11.206Z,23.80
2022-10-14T07:38:40.683Z,23.40
2022-10-14T07:41:16.855Z,22.47
2022-10-14T07:43:45.232Z,21.83
2022-10-14T07:46:13.317Z,23.83
2022-10-14T07:48:56.155Z,22.77
2022-10-14T07:54:21.178Z,23.57
2022-10-14T07:56:49.991Z,25.13
2022-10-14T07:59:18.676Z,24.03
2022-10-14T08:01:47.994Z,23.60
2022-10-14T08:04:15.917Z,25.37
2022-10-14T08:06:44.065Z,23.10
2022-10-14T08:09:13.539Z,24.63
2022-10-14T08:11:44.502Z,24.17
2022-10-14T08:14:12.319Z,24.87
2022-10-14T08:16:40.422Z,24.67
2022-10-14T08:19:13.746Z,24.17
2022-10-14T08:21:42.613Z,25.47
2022-10-14T08:24:10.989Z,25.90
2022-10-14T08:26:40.663Z,25.00
2022-10-14T08:29:12.228Z,25.53
2022-10-14T08:31:39.886Z,26.53
2022-10-14T08:34:07.625Z,26.47
2022-10-14T08:36:35.283Z,26.40
2022-10-14T08:39:03.479Z,25.90
2022-10-14T08:41:56.822Z,27.43
2022-10-14T08:44:28.493Z,27.63
2022-10-14T08:46:59.097Z,26.50
2022-10-14T08:49:31.412Z,28.13
2022-10-14T08:52:03.759Z,28.33
2022-10-14T08:54:37.813Z,28.53
2022-10-14T08:57:07.306Z,28.40
2022-10-14T08:59:41.870Z,27.53
2022-10-14T09:02:30.843Z,29.10
2022-10-14T09:05:02.054Z,31.50
2022-10-14T09:07:31.632Z,32.20
2022-10-14T09:10:03.583Z,31.40
2022-10-14T09:12:35.092Z,31.10
2022-10-14T09:15:17.911Z,31.17
2022-10-14T09:17:51.259Z,32.27
2022-10-14T09:20:22.224Z,33.30
2022-10-14T09:23:01.882Z,34.20
2022-10-14T09:25:33.713Z,32.97
2022-10-14T09:28:01.466Z,33.67
2022-10-14T09:30:36.384Z,32.13
2022-10-14T09:33:06.382Z,33.80
2022-10-14T09:35:39.766Z,32.70
2022-10-14T09:38:07.747Z,33.47
2022-10-14T09:40:37.618Z,32.83
2022-10-14T09:43:16.205Z,32.60
2022-10-14T09:45:58.503Z,31.80
2022-10-14T09:48:33.511Z,32.63
2022-10-14T09:51:04.131Z,31.73
2022-10-14T09:53:34.230Z,29.33
2022-10-14T09:56:05.193Z,29.17
2022-10-14T09:58:36.893Z,28.40
2022-10-14T10:01:12.780Z,26.03
2022-10-14T10:03:41.218Z,25.83
2022-10-14T10:06:11.861Z,26.47
2022-10-14T10:08:41.255Z,25.67
2022-10-14T10:11:13.686Z,25.00
2022-10-14T10:13:44.602Z,25.17
2022-10-14T10:16:25.203Z,24.83
2022-10-14T10:18:55.200Z,23.73
2022-10-14T10:21:25.733Z,23.27
2022-10-14T10:23:56.414Z,24.60
2022-10-14T10:26:30.796Z,24.20
2022-10-14T10:28:59.890Z,23.63
2022-10-14T10:32:06.530Z,24.07
2022-10-14T10:35:06.230Z,24.00
2022-10-14T10:37:42.401Z,23.37
2022-10-14T10:40:24.947Z,23.70
2022-10-14T10:43:20.084Z,24.00
2022-10-14T10:46:01.807Z,22.90
2022-10-14T10:48:39.981Z,23.50
2022-10-14T10:51:12.063Z,22.57
2022-10-14T10:53:51.413Z,22.50
2022-10-14T10:56:31.357Z,21.10
2022-10-14T10:59:14.503Z,21.13
2022-10-14T11:01:50.511Z,20.67
2022-10-14T11:04:46.556Z,21.27
2022-10-14T11:07:39.102Z,21.90
2022-10-14T11:10:36.604Z,22.37
2022-10-14T11:13:22.880Z,20.83
2022-10-14T11:15:58.258Z,20.83
2022-10-14T11:18:37.489Z,20.30
2022-10-14T11:21:18.554Z,18.93
2022-10-14T11:23:59.699Z,17.73
2022-10-14T11:27:03.659Z,17.43
2022-10-14T11:29:46.328Z,16.17
2022-10-14T11:32:23.537Z,15.37
2022-10-14T11:35:06.871Z,15.53
2022-10-14T11:37:48.075Z,14.13
2022-10-14T11:40:24.131Z,14.70
2022-10-14T11:43:04.359Z,13.37
2022-10-14T11:45:46.763Z,13.90
2022-10-14T11:48:27.797Z,14.37
2022-10-14T11:51:02.702Z,14.03
2022-10-14T11:53:44.357Z,13.97
2022-10-14T11:56:24.191Z,13.67
2022-10-14T11:58:54.242Z,13.17
2022-10-14T12:01:34.214Z,13.80
2022-10-14T12:04:11.817Z,14.40
2022-10-14T12:06:44.847Z,13.80
2022-10-14T12:09:23.078Z,14.60
2022-10-14T12:11:55.129Z,13.30
2022-10-14T12:14:30.962Z,13.87
2022-10-14T12:17:01.749Z,13.17
2022-10-14T12:19:30.798Z,13.57
2022-10-14T12:22:06.963Z,13.50
2022-10-14T12:24:40.075Z,14.03
2022-10-14T12:27:11.671Z,14.93
2022-10-14T12:29:43.763Z,14.40
2022-10-14T12:32:25.806Z,14.53
2022-10-14T12:34:54.820Z,13.90
2022-10-14T12:37:43.770Z,14.80
2022-10-14T12:40:28.575Z,13.47
2022-10-14T12:43:02.679Z,13.40
2022-10-14T12:45:32.789Z,14.27
2022-10-14T12:48:07.798Z,14.30
2022-10-14T12:50:38.760Z,13.80
2022-10-14T12:53:16.938Z,12.97
2022-10-14T12:55:51.970Z,12.67
2022-10-14T12:58:26.515Z,12.23
2022-10-14T13:00:56.428Z,11.80
2022-10-14T13:03:28.082Z,11.70
2022-10-14T13:06:43.777Z,12.50
2022-10-14T13:09:41.668Z,12.43
2022-10-14T13:12:42.097Z,13.13
2022-10-14T13:15:52.408Z,12.67
2022-10-14T13:18:54.726Z,12.40
2022-10-14T13:21:31.555Z,12.17
2022-10-14T13:24:02.667Z,11.33
2022-10-14T13:26:39.544Z,10.90
2022-10-14T13:29:18.532Z,11.57
2022-10-14T13:31:55.615Z,11.47
2022-10-14T13:34:49.923Z,11.83
2022-10-14T13:37:31.341Z,11.00
2022-10-14T13:40:06.371Z,10.70
2022-10-14T13:42:40.394Z,10.97
2022-10-14T13:45:13.595Z,11.00
2022-10-14T13:47:43.370Z,11.13
2022-10-14T13:50:13.964Z,11.17
2022-10-14T13:52:41.885Z,10.53
2022-10-14T13:55:16.383Z,11.07
2022-10-14T13:58:07.862Z,11.30
2022-10-14T14:00:42.279Z,11.17
2022-10-14T14:03:21.142Z,10.77
2022-10-14T14:05:51.217Z,11.40
2022-10-14T14:08:41.811Z,10.77
2022-10-14T14:11:16.706Z,11.07
2022-10-14T14:13:55.863Z,10.87
2022-10-14T14:16:30.844Z,11.03
2022-10-14T14:19:14.117Z,11.03
2022-10-14T14:21:43.212Z,10.80
2022-10-14T14:24:19.971Z,10.17
2022-10-14T14:26:47.765Z,10.30
2022-10-14T14:29:18.813Z,9.80
2022-10-14T14:32:05.412Z,9.07
2022-10-14T14:34:36.771Z,9.00
2022-10-14T14:39:59.629Z,9.37
2022-10-14T14:42:28.879Z,9.33
2022-10-14T14:45:00.011Z,9.33
2022-10-14T14:47:29.819Z,9.10
2022-10-14T14:50:18.260Z,9.23
2022-10-14T14:52:49.735Z,9.43
2022-10-14T14:55:37.059Z,10.57
2022-10-14T14:58:07.940Z,9.53
2022-10-14T15:00:35.623Z,9.87
2022-10-14T15:03:04.971Z,9.60
2022-10-14T15:05:32.917Z,9.77
2022-10-14T15:08:01.956Z,9.50
2022-10-14T15:10:31.620Z,9.40
2022-10-14T15:13:02.565Z,9.80
2022-10-14T15:15:33.189Z,9.60
2022-10-14T15:18:15.253Z,10.07
2022-10-14T15:20:44.176Z,9.27
2022-10-14T15:23:42.275Z,10.10
2022-10-14T15:26:30.628Z,9.43
2022-10-14T15:29:15.579Z,11.27
2022-10-14T15:31:46.127Z,10.97
2022-10-14T15:34:20.394Z,11.10
2022-10-14T15:36:51.616Z,10.97
2022-10-14T15:39:21.424Z,11.57
2022-10-14T15:41:49.763Z,11.83
2022-10-14T15:44:17.731Z,11.40
2022-10-14T15:47:05.243Z,11.47
2022-10-14T15:49:37.083Z,10.90
2022-10-14T15:52:04.855Z,11.37
2022-10-14T15:54:33.910Z,10.17
2022-10-14T15:57:03.409Z,10.90
2022-10-14T15:59:31.870Z,11.03
2022-10-14T16:01:59.833Z,9.30
2022-10-14T16:04:27.965Z,10.17
2022-10-14T16:06:57.628Z,9.80
2022-10-14T16:09:27.680Z,9.17
2022-10-14T16:11:59.444Z,9.33
2022-10-14T16:14:28.047Z,9.37
2022-10-14T16:16:56.135Z,9.17
2022-10-14T16:19:23.851Z,8.60
2022-10-14T16:21:51.491Z,9.30
2022-10-14T16:24:21.130Z,9.27
2022-10-14T16:26:49.816Z,8.80
2022-10-14T16:29:19.081Z,8.93
2022-10-14T16:31:49.268Z,9.23
2022-10-14T16:34:17.059Z,8.37
2022-10-14T16:36:45.327Z,9.13
2022-10-14T16:39:14.286Z,8.63
2022-10-14T16:41:42.324Z,9.20
2022-10-14T16:44:24.201Z,8.60
2022-10-14T16:47:11.801Z,8.83
2022-10-14T16:49:40.501Z,8.30
2022-10-14T16:52:08.767Z,8.73
2022-10-14T16:54:36.623Z,8.83
2022-10-14T16:57:04.859Z,9.33
2022-10-14T16:59:32.659Z,9.30
2022-10-14T17:02:02.000Z,8.77
2022-10-14T17:04:29.790Z,8.67
2022-10-14T17:06:57.445Z,9.13
2022-10-14T17:11:58.042Z,8.33
2022-10-14T17:14:25.948Z,8.67
2022-10-14T17:16:53.555Z,9.50
2022-10-14T17:19:23.890Z,8.83
2022-10-14T17:21:51.617Z,9.40
2022-10-14T17:24:19.304Z,9.70
2022-10-14T17:26:47.112Z,9.17
2022-10-14T17:29:15.004Z,9.07
2022-10-14T17:31:42.696Z,9.87
2022-10-14T17:34:10.813Z,9.70
2022-10-14T17:36:41.571Z,9.93
2022-10-14T17:39:16.440Z,10.10
2022-10-14T17:41:49.093Z,10.70
2022-10-14T17:44:16.759Z,10.43
2022-10-14T17:46:44.484Z,9.87
2022-10-14T17:49:13.120Z,10.60
2022-10-14T17:51:43.214Z,10.57
2022-10-14T17:54:14.031Z,10.97
2022-10-14T17:56:43.045Z,10.87
2022-10-14T17:59:14.141Z,10.83
2022-10-14T18:04:29.777Z,11.50
2022-10-14T18:06:59.219Z,11.10
2022-10-14T18:09:26.945Z,11.70
2022-10-14T18:12:08.398Z,11.63
2022-10-14T18:14:36.806Z,12.13
2022-10-14T18:17:05.165Z,11.13
2022-10-14T18:19:32.933Z,12.07
2022-10-14T18:22:02.562Z,12.00
2022-10-14T18:24:30.383Z,11.67
2022-10-14T18:26:58.079Z,11.73
2022-10-14T18:29:25.937Z,11.00
2022-10-14T18:31:53.601Z,11.37
2022-10-14T18:34:22.370Z,10.93
2022-10-14T18:36:50.237Z,10.80
2022-10-14T18:39:20.198Z,12.00
2022-10-14T18:41:47.991Z,11.17
2022-10-14T18:44:15.733Z,11.13
2022-10-14T18:46:43.793Z,10.70
2022-10-14T18:49:12.379Z,10.50
2022-10-14T18:51:42.021Z,10.90
2022-10-14T18:54:13.270Z,10.97
2022-10-14T18:56:44.483Z,10.53
2022-10-14T18:59:14.453Z,9.97
2022-10-14T19:01:43.278Z,9.77
2022-10-14T19:04:13.360Z,10.50
2022-10-14T19:06:41.718Z,10.27
2022-10-14T19:09:12.534Z,9.87
2022-10-14T19:11:41.214Z,9.77
2022-10-14T19:14:10.806Z,10.07
2022-10-14T19:16:40.089Z,9.87
2022-10-14T19:19:11.760Z,10.30
2022-10-14T19:21:39.819Z,10.03
2022-10-14T19:24:09.053Z,9.80
2022-10-14T19:26:39.130Z,10.73
2022-10-14T19:29:11.476Z,10.30
2022-10-14T19:31:41.808Z,10.50
2022-10-14T19:34:13.069Z,8.93
2022-10-14T19:36:41.142Z,9.00
2022-10-14T19:39:11.165Z,10.10
2022-10-14T19:41:43.094Z,10.53
2022-10-14T19:44:12.570Z,10.10
2022-10-14T19:46:42.168Z,9.30
2022-10-14T19:49:12.748Z,9.60
2022-10-14T19:51:40.821Z,9.23
2022-10-14T19:54:08.688Z,9.83
2022-10-14T19:56:36.350Z,8.53
2022-10-14T19:59:04.044Z,8.77
2022-10-14T20:01:32.167Z,8.97
2022-10-14T20:04:02.842Z,8.93
2022-10-14T20:06:33.651Z,9.43
2022-10-14T20:09:01.832Z,8.83
2022-10-14T20:11:30.091Z,9.73
2022-10-14T20:13:58.104Z,8.43
2022-10-14T20:16:26.991Z,8.40
2022-10-14T20:18:55.190Z,8.40
2022-10-14T20:21:24.816Z,8.70
2022-10-14T20:23:52.544Z,8.27
2022-10-14T20:26:22.304Z,8.50
2022-10-14T20:28:51.247Z,8.20
2022-10-14T20:31:21.118Z,8.53
2022-10-14T20:33:49.500Z,7.80
2022-10-14T20:36:18.789Z,8.00
2022-10-14T20:38:48.373Z,7.80
2022-10-14T20:41:18.717Z,7.33
2022-10-14T20:43:47.275Z,7.77
2022-10-14T20:46:16.112Z,7.40
2022-10-14T20:48:44.016Z,7.63
2022-10-14T20:51:14.301Z,7.87
2022-10-14T20:53:42.011Z,7.70
2022-10-14T20:56:13.950Z,7.53
2022-10-14T20:58:42.036Z,7.70
2022-10-14T21:01:12.839Z,7.37
2022-10-14T21:03:41.347Z,6.87
2022-10-14T21:06:11.039Z,6.93
2022-10-14T21:08:38.862Z,7.10
2022-10-14T21:11:12.013Z,6.50
2022-10-14T21:13:46.600Z,6.77
2022-10-14T21:16:16.374Z,6.50
2022-10-14T21:18:47.934Z,6.60
2022-10-14T21:21:16.975Z,6.67
2022-10-14T21:23:45.252Z,6.37
2022-10-14T21:26:12.948Z,7.27
2022-10-14T21:28:40.637Z,7.57
2022-10-14T21:31:12.764Z,7.10
2022-10-14T21:33:42.697Z,7.10
2022-10-14T21:36:12.264Z,6.93
2022-10-14T21:38:40.756Z,6.60
2022-10-14T21:41:09.201Z,6.60
2022-10-14T21:43:38.284Z,6.73
2022-10-14T21:46:07.936Z,7.37
2022-10-14T21:48:37.177Z,6.67
2022-10-14T21:51:06.886Z,6.30
2022-10-14T21:53:36.248Z,6.87
2022-10-14T21:56:04.272Z,6.33
2022-10-14T21:58:32.385Z,6.43
2022-10-14T22:01:05.872Z,6.40
2022-10-14T22:03:34.660Z,6.50
2022-10-14T22:08:41.585Z,6.37
2022-10-14T22:11:17.301Z,6.27
2022-10-14T22:13:45.567Z,6.37
2022-10-14T22:16:13.892Z,7.13
2022-10-14T22:18:43.482Z,6.47
2022-10-14T22:21:12.604Z,7.07
2022-10-14T22:23:40.503Z,6.87
2022-10-14T22:26:10.152Z,7.00
2022-10-14T22:28:38.543Z,7.27
2022-10-14T22:31:07.260Z,7.30
2022-10-14T22:33:36.125Z,7.00
2022-10-14T22:36:08.392Z,6.90
2022-10-14T22:38:38.280Z,6.70
2022-10-14T22:41:07.601Z,7.50
2022-10-14T22:43:35.911Z,7.07
2022-10-14T22:46:05.257Z,6.70
2022-10-14T22:48:33.708Z,7.03
2022-10-14T22:51:03.701Z,7.10
2022-10-14T22:53:31.958Z,6.93
2022-10-14T22:56:01.270Z,6.60
2022-10-14T22:58:29.569Z,7.20
2022-10-14T23:00:57.530Z,6.63
2022-10-14T23:03:25.544Z,7.60
2022-10-14T23:05:53.219Z,7.03
2022-10-14T23:08:21.230Z,6.80
2022-10-14T23:10:48.908Z,6.57
2022-10-14T23:13:17.975Z,6.10
2022-10-14T23:15:55.940Z,6.43
2022-10-14T23:18:23.903Z,6.43
2022-10-14T23:20:52.154Z,6.73
2022-10-14T23:23:19.941Z,6.70
2022-10-14T23:25:47.636Z,7.27
2022-10-14T23:28:15.600Z,6.97
2022-10-14T23:30:44.767Z,6.97
2022-10-14T23:33:12.623Z,7.27
2022-10-14T23:35:40.472Z,7.10
2022-10-14T23:38:08.128Z,7.53
2022-10-14T23:40:35.822Z,7.00
2022-10-14T23:43:03.490Z,7.70
2022-10-14T23:45:31.223Z,6.73
2022-10-14T23:48:00.271Z,7.40
2022-10-14T23:50:27.941Z,7.33
2022-10-14T23:52:55.591Z,7.27
2022-10-14T23:55:23.285Z,7.27
2022-10-14T23:57:50.963Z,7.50
